Cancún International Airport
MMUN : now visible

Airfield :











YOU CAN JOIN US ON...

 
LOGIN :

Register | Disclaimer

   EN    FR    IT 

 









Legend :    VFR   Marginal VFR   IFR   Intensive IFR   Very Intensive IFR
Visi :
Ceiling :
>= 8 km
>= 3000ft
5 to 8 km
1000 to 3000 ft
1500m to 5 km
500 to 1000 ft
800 to 1500m
200 to 500 ft
< 800m
< 200 ft
Symbols :   Thunderstorms  Fog  Heavy snow  Heavy precipitations  Wind > 20 kt







- Airport Elevation : 20 ft
- IATA code : CUN


MMUN - Cancún International

CURRENT METAR :
  • 261045Z 04003KT 7SM SCT015TCU 25/25 A2997 RMK 8/200

EXPIRED METARs :
  • 260943Z 03002KT 7SM FEW015 24/24 A2995 RMK 8/500
  • 260842Z 05003KT 7SM FEW015 SCT080 25/25 A2995 RMK SLP142 57012 909 8/570

TAF TAF MMUN
Valid from the 26 at 12:00 until the 27 at 18:00 UTC


261046Z 2612/2718 04005KT P6SM SCT015 TX31/2619Z TN23/2612Z
FM261800 09015KT P6SM BKN015CB BKN080 BKN250
FM270600 09005KT P6SM SCT015
TEMPO 2709/2713 6SM -RA BKN015
FM271700 09014KT P6SM BKN015CB BKN080
MMFR FIR / North America



MET'MAP, your aeronautical weather chart ! - Copyright ORBIFLY December 2007 - Disclaimer

ORBIFLY MET'MAP TEAM :

Programming & Development : Alexandra Zaïnal
Concept & Development : Baudouin d'Aumeries
Co-Development & Prog : Marc-Olivier Méhu
Technical & hardware support : Manuel Goepfert

Contact : metmap@orbifly.com




SOURCES & CREDITS :

   NOAA       Earth
Advisory